Search flights

Kimberley Airport, Kimberley (FAKM)

Airport Weather & NOTAM's

METAR for:FAKM (Kimberley Arpt, NC, ZA)
Text:FAKM 152300Z AUTO 06001KT //// // ////// 04/04 Q1026
Conditions at:2300 UTC 15 Jun 2024
Temperature: 4.0°C ( 39°F)
Dewpoint: 4.0°C ( 39°F) [RH = 100%]
Pressure (altimeter):30.30 inches Hg (1026.0 mb)
Winds:from the ENE (60 degrees) at 1 MPH (1 knots; 0.5 m/s)

Live Departures & Arrivals

There are currently no arrivals or departures for this airport.

Departures History (last 12 months)

Flight No. Dest. Aircraft Date
PVI194 FACT PMDG 737-8... 2024-03-15 13:19:05

Arrivals History (last 12 months)

Flight No. Origin Aircraft Date
PVI194 FQMA PMDG 737-8... 2024-03-13 16:07:40

Runway Information (Airport elevation: 3,950ft)

Runway 02 Length 9,845ft Width 146ft Elevation 3,926ft Surface Bituminous Heading 360
Runway 10 Length 7,994ft Width 144ft Elevation 3,926ft Surface Bituminous Heading 80
Runway 20 Length 9,845ft Width 146ft Elevation 3,926ft Surface Bituminous Heading 180
Runway 28 Length 7,994ft Width 144ft Elevation 3,926ft Surface Bituminous Heading 260

Airport Frequencies

Type APP/DEP Frequency 119.400 Mhz
Type Ground Frequency 122.650 Mhz
Type Tower Frequency 118.200 Mhz

Airport Navaids

Type NDB Ident KM Frequency 365 Khz
Type VOR-DME Ident KYV Frequency 113200 Khz